Time;durP1;ratioP1;P1;durP2;ratioP2;P2;SDS_P1;SDS_P2;PMS_P1;PMS_P2;Temp;Humidity;BMP_temperature;BMP_pressure;BME280_temperature;BME280_humidity;BME280_pressure;Samples;Min_cycle;Max_cycle;Signal;HPM_P1;HPM_P2
2023/10/24 00:02:42;;;;;;;19.33;12.03;;;;;;;8.18;100.00;100497.78;4840822;59;1142873;-75
2023/10/24 00:07:49;;;;;;;23.60;11.93;;;;;;;8.13;100.00;100495.45;4819436;58;1140819;-74
2023/10/24 00:12:55;;;;;;;19.60;10.87;;;;;;;8.10;100.00;100500.08;4849419;58;1142810;-72
2023/10/24 00:18:00;;;;;;;30.82;13.83;;;;;;;8.10;100.00;100502.71;4790524;60;1143142;-73
2023/10/24 00:23:06;;;;;;;25.77;14.87;;;;;;;8.04;100.00;100513.20;4930741;57;1152291;-75
2023/10/24 00:28:12;;;;;;;20.60;12.88;;;;;;;7.72;100.00;100502.66;4795366;57;1143059;-71
2023/10/24 00:33:17;;;;;;;25.05;13.98;;;;;;;7.46;100.00;100504.84;4802818;57;1143082;-72
2023/10/24 00:38:23;;;;;;;15.70;11.30;;;;;;;7.45;100.00;100495.25;4932811;57;1141000;-71
2023/10/24 00:43:29;;;;;;;19.63;11.97;;;;;;;7.50;100.00;100497.09;4742843;59;1140787;-70
2023/10/24 00:48:35;;;;;;;19.33;11.43;;;;;;;7.51;100.00;100502.73;4813189;58;1142691;-70
2023/10/24 00:53:41;;;;;;;23.70;9.17;;;;;;;7.51;100.00;100494.84;4978080;56;1142899;-74
2023/10/24 00:58:48;;;;;;;14.87;9.98;;;;;;;7.58;100.00;100482.98;4873306;58;1141054;-71
2023/10/24 01:03:56;;;;;;;13.57;10.03;;;;;;;7.57;100.00;100479.97;4790402;59;1140983;-73
2023/10/24 01:09:03;;;;;;;15.68;11.45;;;;;;;7.51;100.00;100479.05;4912259;58;1143253;-74
2023/10/24 01:14:09;;;;;;;14.77;10.47;;;;;;;7.44;100.00;100483.88;4811545;59;1140890;-74
2023/10/24 01:19:15;;;;;;;13.85;9.78;;;;;;;7.39;100.00;100485.48;4916838;58;1142870;-75
2023/10/24 01:24:21;;;;;;;14.77;9.17;;;;;;;7.38;100.00;100479.01;4902028;58;1140806;-73
2023/10/24 01:29:26;;;;;;;19.25;10.03;;;;;;;7.45;100.00;100484.73;4807363;58;1140937;-73
2023/10/24 01:34:32;;;;;;;17.40;10.93;;;;;;;7.46;100.00;100480.69;4909983;57;1143203;-72
2023/10/24 01:39:38;;;;;;;20.93;10.37;;;;;;;7.43;100.00;100473.45;4789972;59;1143626;-73
2023/10/24 01:44:43;;;;;;;17.93;11.80;;;;;;;7.47;100.00;100461.33;4930698;58;1143081;-73
2023/10/24 01:49:49;;;;;;;19.27;11.03;;;;;;;7.51;100.00;100466.73;4794204;59;1143161;-71
2023/10/24 01:54:55;;;;;;;16.73;10.57;;;;;;;7.50;100.00;100465.05;4668919;61;1144084;-70
2023/10/24 02:00:00;;;;;;;12.20;9.38;;;;;;;7.50;100.00;100453.20;4745420;60;1143989;-71
2023/10/24 02:05:07;;;;;;;17.20;10.66;;;;;;;7.54;100.00;100453.38;4826861;60;1141106;-74
2023/10/24 02:10:14;;;;;;;16.10;12.15;;;;;;;7.63;100.00;100451.95;4759359;60;1143261;-71
2023/10/24 02:15:20;;;;;;;29.00;13.55;;;;;;;7.63;100.00;100440.95;4793786;59;1143109;-73
2023/10/24 02:20:25;;;;;;;25.97;14.10;;;;;;;7.55;100.00;100432.70;4819054;59;1143363;-75
2023/10/24 02:25:33;;;;;;;50.67;14.90;;;;;;;7.60;100.00;100425.83;4866502;58;1142839;-73
2023/10/24 02:30:39;;;;;;;37.50;15.43;;;;;;;7.67;100.00;100417.87;4892303;57;1143141;-72
2023/10/24 02:35:45;;;;;;;37.23;14.40;;;;;;;7.78;100.00;100411.91;4769233;58;1143119;-70
2023/10/24 02:40:55;;;;;;;50.83;15.67;;;;;;;7.92;100.00;100420.55;4745493;58;1143043;-71
2023/10/24 02:46:05;;;;;;;29.50;14.43;;;;;;;8.03;100.00;100407.95;4955566;57;1142898;-69
2023/10/24 02:51:10;;;;;;;58.30;14.43;;;;;;;8.07;100.00;100394.95;4982221;56;1143194;-70
2023/10/24 02:56:16;;;;;;;24.60;14.53;;;;;;;8.03;100.00;100400.90;4855764;58;1142911;-70
2023/10/24 03:01:22;;;;;;;20.70;15.27;;;;;;;8.07;100.00;100401.54;4905473;58;1143048;-69
2023/10/24 03:06:27;;;;;;;16.37;12.20;;;;;;;8.16;100.00;100388.19;4791378;60;1143032;-72
2023/10/24 03:11:33;;;;;;;16.20;12.67;;;;;;;8.23;100.00;100367.91;4809229;60;1143393;-69
2023/10/24 03:16:41;;;;;;;17.03;12.17;;;;;;;8.31;100.00;100375.26;4792560;58;1143049;-69
2023/10/24 03:21:47;;;;;;;15.30;11.77;;;;;;;8.32;100.00;100371.70;4797082;59;1143387;-71
2023/10/24 03:26:53;;;;;;;17.47;11.87;;;;;;;8.28;100.00;100362.30;4925445;58;1142851;-68
2023/10/24 03:32:00;;;;;;;16.40;11.87;;;;;;;8.36;100.00;100369.23;4790215;58;1142919;-69
2023/10/24 03:37:06;;;;;;;16.17;13.33;;;;;;;8.44;100.00;100382.70;4910613;58;1146219;-69
2023/10/24 03:42:14;;;;;;;15.87;11.83;;;;;;;8.51;100.00;100401.09;4806524;59;1143067;-70
2023/10/24 03:47:19;;;;;;;17.40;12.40;;;;;;;8.52;100.00;100399.30;4667359;60;1143642;-71
2023/10/24 03:52:24;;;;;;;20.27;15.48;;;;;;;8.60;100.00;100401.74;4732545;59;1143000;-72
2023/10/24 03:57:30;;;;;;;18.10;14.17;;;;;;;8.63;100.00;100399.37;4778943;60;1143016;-72
2023/10/24 04:02:36;;;;;;;19.75;13.50;;;;;;;8.65;100.00;100396.99;4749557;60;1143097;-70
2023/10/24 04:07:42;;;;;;;16.67;12.70;;;;;;;8.66;100.00;100396.52;4756436;60;1142914;-72
2023/10/24 04:12:47;;;;;;;17.43;11.60;;;;;;;8.63;100.00;100380.44;4770648;59;1143318;-73
2023/10/24 04:17:53;;;;;;;21.27;13.90;;;;;;;8.62;100.00;100376.59;4763113;59;1142932;-71
2023/10/24 04:23:03;;;;;;;19.53;14.67;;;;;;;8.59;100.00;100356.56;4763598;59;1142978;-69
2023/10/24 04:28:09;;;;;;;20.90;15.13;;;;;;;8.57;100.00;100358.46;4765519;58;1143336;-71
2023/10/24 04:33:15;;;;;;;44.57;30.67;;;;;;;8.60;100.00;100370.58;4844619;57;1191425;-68
2023/10/24 04:38:21;;;;;;;74.47;48.25;;;;;;;8.65;100.00;100373.27;4959847;57;1143260;-69
2023/10/24 04:43:26;;;;;;;29.17;17.63;;;;;;;8.73;100.00;100379.30;4859878;58;1143234;-71
2023/10/24 04:48:32;;;;;;;28.23;21.52;;;;;;;8.78;100.00;100374.06;4839261;58;1143293;-71
2023/10/24 04:53:38;;;;;;;31.93;23.60;;;;;;;8.78;100.00;100376.70;4914320;57;1142886;-67
2023/10/24 04:58:44;;;;;;;61.87;37.87;;;;;;;8.80;100.00;100384.50;4896120;57;1143115;-65
2023/10/24 05:03:49;;;;;;;41.47;22.97;;;;;;;8.80;100.00;100350.22;4758563;60;1143210;-66
2023/10/24 05:08:55;;;;;;;31.97;21.37;;;;;;;8.79;100.00;100336.20;4912055;57;1142924;-66
2023/10/24 05:14:00;;;;;;;30.57;21.10;;;;;;;8.81;100.00;100342.67;4941142;57;1143017;-67
2023/10/24 05:19:06;;;;;;;29.47;21.23;;;;;;;8.81;100.00;100347.48;4919891;57;1143219;-65
2023/10/24 05:24:12;;;;;;;30.90;19.47;;;;;;;8.84;100.00;100334.55;4907012;57;1143659;-66
2023/10/24 05:29:18;;;;;;;35.07;20.37;;;;;;;8.85;100.00;100323.05;4900791;57;1143241;-65
2023/10/24 05:34:23;;;;;;;34.07;22.87;;;;;;;8.90;100.00;100326.64;4780510;59;1142974;-66
2023/10/24 05:39:30;;;;;;;36.80;22.67;;;;;;;8.90;100.00;100326.64;4742290;60;1143039;-76
2023/10/24 05:44:35;;;;;;;54.53;35.23;;;;;;;8.93;100.00;100335.18;4712951;60;1143096;-66
2023/10/24 05:49:42;;;;;;;43.25;26.82;;;;;;;8.96;100.00;100343.34;4981782;56;1143030;-65
2023/10/24 05:54:47;;;;;;;32.30;22.40;;;;;;;8.99;100.00;100336.53;4965308;57;1142880;-68
2023/10/24 05:59:53;;;;;;;31.80;21.10;;;;;;;9.01;100.00;100338.59;4788231;60;1142720;-68
2023/10/24 06:04:59;;;;;;;30.07;20.97;;;;;;;9.04;100.00;100337.86;4833813;58;1143033;-71
2023/10/24 06:10:05;;;;;;;34.83;22.65;;;;;;;9.08;100.00;100348.55;4824842;58;1143283;-69
2023/10/24 06:15:11;;;;;;;35.77;22.43;;;;;;;9.12;100.00;100347.38;4824443;58;1143310;-70
2023/10/24 06:20:18;;;;;;;34.00;23.83;;;;;;;9.19;100.00;100356.98;4782318;59;1143259;-70
2023/10/24 06:25:23;;;;;;;32.50;22.77;;;;;;;9.22;100.00;100338.77;4787598;59;1142884;-71
2023/10/24 06:30:29;;;;;;;33.53;24.18;;;;;;;9.23;100.00;100333.38;4775648;59;1143040;-67
2023/10/24 06:35:35;;;;;;;43.00;26.47;;;;;;;9.26;100.00;100330.99;4837823;58;1142824;-69
2023/10/24 06:40:45;;;;;;;40.83;29.90;;;;;;;9.28;100.00;100325.97;4896793;58;1143093;-68
2023/10/24 06:45:51;;;;;;;37.93;24.63;;;;;;;9.27;100.00;100332.68;4799388;59;1144082;-71
2023/10/24 06:50:57;;;;;;;35.60;24.27;;;;;;;9.26;100.00;100330.99;4913780;57;1142821;-67
2023/10/24 06:56:03;;;;;;;39.37;23.63;;;;;;;9.27;100.00;100332.20;4795361;58;1143064;-71
2023/10/24 07:01:09;;;;;;;41.57;24.67;;;;;;;9.28;100.00;100302.22;4759162;59;1143233;-73
2023/10/24 07:06:14;;;;;;;44.87;24.90;;;;;;;9.32;100.00;100302.33;4772741;59;1142841;-70
2023/10/24 07:11:20;;;;;;;40.67;26.37;;;;;;;9.35;100.00;100288.90;4819530;58;1143110;-66
2023/10/24 07:16:26;;;;;;;41.95;26.00;;;;;;;9.46;100.00;100298.66;4733022;60;1143246;-75
2023/10/24 07:21:32;;;;;;;46.02;26.35;;;;;;;9.55;100.00;100291.34;4827968;58;1143072;-71
2023/10/24 07:26:38;;;;;;;38.83;25.03;;;;;;;9.67;100.00;100290.39;4879784;57;1143003;-73
2023/10/24 07:31:43;;;;;;;38.23;22.23;;;;;;;9.81;100.00;100277.43;4807754;60;1143285;-71
2023/10/24 07:36:49;;;;;;;34.87;22.57;;;;;;;9.92;100.00;100273.97;4797241;58;1143631;-75
2023/10/24 07:41:55;;;;;;;36.45;24.20;;;;;;;10.02;100.00;100276.23;4888695;58;1142710;-73
2023/10/24 07:47:00;;;;;;;36.80;22.27;;;;;;;10.09;100.00;100266.36;4897985;58;1145158;-67
2023/10/24 07:52:06;;;;;;;34.47;23.67;;;;;;;10.18;100.00;100255.56;4910230;58;1145344;-70
2023/10/24 07:57:12;;;;;;;35.63;21.90;;;;;;;10.26;100.00;100250.52;4936180;57;1145325;-68
2023/10/24 08:02:18;;;;;;;40.27;22.70;;;;;;;10.41;100.00;100257.69;4826228;59;1144868;-67
2023/10/24 08:07:24;;;;;;;40.03;23.23;;;;;;;10.56;100.00;100255.95;4844721;58;1145322;-71
2023/10/24 08:12:29;;;;;;;71.37;42.38;;;;;;;10.74;100.00;100256.74;4766709;59;1146105;-67
2023/10/24 08:17:35;;;;;;;44.13;23.67;;;;;;;10.90;100.00;100238.16;4952667;57;1145491;-74
2023/10/24 08:22:41;;;;;;;49.27;25.93;;;;;;;11.12;100.00;100226.62;5017931;56;1145164;-73
2023/10/24 08:27:46;;;;;;;49.03;26.82;;;;;;;11.35;100.00;100211.89;4985703;56;1145206;-72
2023/10/24 08:32:52;;;;;;;46.50;26.90;;;;;;;11.80;100.00;100211.91;4932823;58;1144866;-72
2023/10/24 08:37:58;;;;;;;49.30;24.83;;;;;;;11.80;100.00;100211.91;4837740;59;1145266;-75
2023/10/24 08:43:04;;;;;;;43.27;24.63;;;;;;;12.07;100.00;100209.16;4822880;59;1145133;-75
2023/10/24 08:48:10;;;;;;;40.27;24.77;;;;;;;12.10;100.00;100209.70;4811093;59;1145337;-75
2023/10/24 08:53:16;;;;;;;46.30;25.05;;;;;;;12.10;100.00;100218.13;4846539;58;1145386;-71
2023/10/24 08:58:22;;;;;;;45.17;26.13;;;;;;;12.08;100.00;100206.83;4819395;60;1144993;-77
2023/10/24 09:03:29;;;;;;;36.10;23.50;;;;;;;12.11;100.00;100196.80;4775371;60;1144795;-74
2023/10/24 09:08:35;;;;;;;42.50;24.70;;;;;;;12.15;100.00;100184.11;4815109;60;1145167;-69
2023/10/24 09:13:40;;;;;;;37.93;22.03;;;;;;;12.24;100.00;100168.69;5010033;58;1145106;-73
2023/10/24 09:18:46;;;;;;;36.43;22.27;;;;;;;12.49;100.00;100150.09;4851710;60;1145958;-74
2023/10/24 09:23:52;;;;;;;36.33;20.87;;;;;;;12.65;100.00;100141.91;4765651;59;1145069;-74
2023/10/24 09:28:58;;;;;;;28.03;18.67;;;;;;;12.80;100.00;100133.02;4721781;59;1144974;-77
2023/10/24 09:34:04;;;;;;;35.27;20.17;;;;;;;12.91;100.00;100134.17;4731947;59;1145155;-74
2023/10/24 09:39:14;;;;;;;34.13;19.45;;;;;;;13.10;100.00;100127.14;4722528;59;1145089;-74
2023/10/24 09:44:20;;;;;;;35.52;19.30;;;;;;;13.30;100.00;100112.34;4897692;57;1145143;-75
2023/10/24 09:49:27;;;;;;;28.10;16.48;;;;;;;13.42;100.00;100110.84;4957157;57;1145000;-75
2023/10/24 09:54:33;;;;;;;32.20;19.40;;;;;;;13.48;100.00;100107.58;4906439;57;1145104;-74
2023/10/24 09:59:41;;;;;;;30.83;20.60;;;;;;;13.47;100.00;100111.22;4904166;58;1145192;-75
2023/10/24 10:04:53;;;;;;;38.97;18.83;;;;;;;13.47;100.00;100099.26;4895154;57;1145003;-75
2023/10/24 10:10:01;;;;;;;36.03;21.47;;;;;;;13.47;100.00;100092.62;4910737;57;1145100;-75
2023/10/24 10:15:36;;;;;;;34.03;19.92;;;;;;;13.46;100.00;100089.61;4959592;56;1145139;-71
2023/10/24 10:21:07;;;;;;;38.83;18.67;;;;;;;13.46;100.00;100077.17;4982488;56;1145048;-74
2023/10/24 10:26:22;;;;;;;28.67;15.43;;;;;;;13.51;100.00;100070.92;4977272;56;1145108;-77
2023/10/24 10:31:48;;;;;;;28.57;15.90;;;;;;;13.59;100.00;100050.27;4887567;57;1145226;-75
2023/10/24 10:36:56;;;;;;;28.97;15.90;;;;;;;13.64;100.00;100055.95;4905761;57;1145225;-76
2023/10/24 10:42:02;;;;;;;29.37;15.30;;;;;;;13.73;100.00;100064.37;4893757;58;1145017;-75
2023/10/24 10:47:10;;;;;;;27.83;13.90;;;;;;;13.81;100.00;100062.27;4871280;57;1145226;-76
2023/10/24 10:52:41;;;;;;;19.27;13.50;;;;;;;13.87;100.00;100050.56;4859164;58;1145306;-73
2023/10/24 10:58:05;;;;;;;31.50;14.27;;;;;;;13.99;100.00;100053.81;4911239;57;1145304;-70
2023/10/24 11:03:15;;;;;;;22.07;14.73;;;;;;;14.06;100.00;100048.22;4957823;56;1145218;-68
2023/10/24 11:08:24;;;;;;;27.83;16.40;;;;;;;14.11;100.00;100048.60;4913001;56;1145417;-67
2023/10/24 11:13:44;;;;;;;26.57;15.35;;;;;;;14.12;100.00;100039.64;4961783;56;1145144;-70
2023/10/24 11:18:49;;;;;;;42.20;15.53;;;;;;;14.15;100.00;100030.52;4915145;57;1145583;-69
2023/10/24 11:23:57;;;;;;;26.73;14.23;;;;;;;14.16;100.00;100004.27;4897234;57;1145381;-68
2023/10/24 11:29:02;;;;;;;24.43;13.55;;;;;;;14.25;100.00;99988.70;4900965;57;1145038;-67
2023/10/24 11:34:08;;;;;;;24.40;14.20;;;;;;;14.30;100.00;99961.98;4805731;60;1142924;-67
2023/10/24 11:39:19;;;;;;;29.90;14.27;;;;;;;14.34;100.00;99943.89;4870737;57;1144018;-70
2023/10/24 11:44:22;;;;;;;29.83;13.53;;;;;;;14.43;100.00;99923.84;4757549;59;1143284;-69
2023/10/24 11:49:35;;;;;;;27.35;13.78;;;;;;;14.54;100.00;99924.55;4936143;57;1142992;-71
2023/10/24 11:54:41;;;;;;;23.83;12.00;;;;;;;14.60;100.00;99920.77;4807235;57;1143283;-74
2023/10/24 11:59:49;;;;;;;23.40;10.93;;;;;;;14.73;100.00;99932.30;4805679;59;1143056;-69
2023/10/24 12:04:54;;;;;;;23.33;12.53;;;;;;;14.85;100.00;99946.16;4917342;57;1143696;-70
2023/10/24 12:10:11;;;;;;;17.50;11.43;;;;;;;14.94;100.00;99948.71;4849268;58;1142946;-69
2023/10/24 12:15:17;;;;;;;20.33;13.20;;;;;;;14.91;100.00;99957.51;4827399;58;1143133;-69
2023/10/24 12:20:23;;;;;;;32.87;18.90;;;;;;;14.89;100.00;99970.14;4824803;59;1142899;-75
2023/10/24 12:25:29;;;;;;;24.37;12.40;;;;;;;14.89;100.00;99970.14;4918425;57;1143099;-72
2023/10/24 12:30:34;;;;;;;21.73;11.20;;;;;;;14.87;100.00;99966.31;4816067;58;1143455;-75
2023/10/24 12:35:40;;;;;;;16.40;9.10;;;;;;;14.83;100.00;99980.09;4802139;58;1143638;-73
2023/10/24 12:40:46;;;;;;;20.40;10.63;;;;;;;14.76;100.00;99964.77;4791791;59;1141020;-74
2023/10/24 12:45:52;;;;;;;15.53;9.97;;;;;;;14.72;100.00;99964.74;4788631;58;1143281;-71
2023/10/24 12:50:59;;;;;;;29.05;19.25;;;;;;;14.68;100.00;99955.40;4926489;58;1141020;-74
2023/10/24 12:56:06;;;;;;;25.00;13.37;;;;;;;14.67;100.00;99935.59;4861711;58;1143158;-73
2023/10/24 13:01:12;;;;;;;24.67;13.03;;;;;;;14.69;100.00;99924.30;4755310;59;1143170;-74
2023/10/24 13:06:19;;;;;;;25.43;16.97;;;;;;;14.68;100.00;99922.13;4664470;60;1143256;-72
2023/10/24 13:11:24;;;;;;;32.83;19.82;;;;;;;14.68;100.00;99906.16;4751129;60;1143099;-75
2023/10/24 13:16:30;;;;;;;35.05;23.67;;;;;;;14.67;100.00;99891.18;4832446;58;1143162;-72
2023/10/24 13:21:36;;;;;;;20.13;11.57;;;;;;;14.66;100.00;99888.70;4717765;61;1142943;-71
2023/10/24 13:26:42;;;;;;;19.65;11.50;;;;;;;14.62;100.00;99876.21;4763437;59;1143858;-75
2023/10/24 13:31:48;;;;;;;30.20;12.50;;;;;;;14.62;100.00;99856.75;4896676;59;1142984;-73
2023/10/24 13:36:54;;;;;;;12.60;7.50;;;;;;;14.59;100.00;99849.91;4755297;59;1143261;-74
2023/10/24 13:42:00;;;;;;;17.87;8.63;;;;;;;14.57;100.00;99838.59;4810389;59;1141360;-74
2023/10/24 13:47:05;;;;;;;34.90;17.53;;;;;;;14.56;100.00;99828.94;4857153;59;1141142;-74
2023/10/24 13:52:13;;;;;;;81.33;36.77;;;;;;;14.57;100.00;99832.44;4875589;58;1143021;-72
2023/10/24 13:57:18;;;;;;;26.23;11.20;;;;;;;14.55;100.00;99819.78;4885916;58;1143241;-74
2023/10/24 14:02:24;;;;;;;23.20;10.63;;;;;;;14.54;100.00;99808.80;4912222;58;1143092;-72
2023/10/24 14:07:29;;;;;;;20.10;11.23;;;;;;;14.52;100.00;99804.13;4884889;58;1142884;-72
2023/10/24 14:12:35;;;;;;;18.17;11.97;;;;;;;14.51;100.00;99792.69;4860541;58;1143020;-71
2023/10/24 14:17:41;;;;;;;36.38;17.77;;;;;;;14.46;100.00;99794.99;4807314;59;1146813;-72
2023/10/24 14:22:49;;;;;;;25.27;13.37;;;;;;;14.47;100.00;99797.16;4763137;60;1142736;-71
2023/10/24 14:27:54;;;;;;;26.00;14.95;;;;;;;14.42;100.00;99790.48;4917526;57;1143757;-74
2023/10/24 14:33:00;;;;;;;33.33;11.25;;;;;;;14.37;100.00;99784.77;4908771;57;1143332;-73
2023/10/24 14:38:06;;;;;;;46.57;18.57;;;;;;;14.32;100.00;99784.44;4881141;58;1143234;-71
2023/10/24 14:43:11;;;;;;;44.07;20.10;;;;;;;14.31;100.00;99781.44;4902348;57;1143725;-72
2023/10/24 14:48:17;;;;;;;28.23;13.95;;;;;;;14.30;100.00;99791.74;4792383;59;1143149;-73
2023/10/24 14:53:23;;;;;;;20.47;12.03;;;;;;;14.29;100.00;99789.23;4931628;57;1143048;-73
2023/10/24 14:58:28;;;;;;;27.33;16.57;;;;;;;14.25;100.00;99789.22;4791066;58;1143188;-71
2023/10/24 15:03:34;;;;;;;28.37;15.70;;;;;;;14.23;100.00;99784.05;4790988;59;1143044;-71
2023/10/24 15:08:40;;;;;;;37.80;24.10;;;;;;;14.19;100.00;99787.22;4809600;59;1143159;-73
2023/10/24 15:13:45;;;;;;;30.37;14.73;;;;;;;14.14;100.00;99770.89;4788878;59;1143068;-74
2023/10/24 15:18:52;;;;;;;22.62;15.13;;;;;;;14.12;100.00;99771.55;4789814;59;1142954;-73
2023/10/24 15:23:59;;;;;;;35.15;19.98;;;;;;;14.07;100.00;99768.86;4929264;56;1142935;-73
2023/10/24 15:29:05;;;;;;;26.60;16.80;;;;;;;14.06;100.00;99762.38;4943264;57;1142936;-71
2023/10/24 15:34:12;;;;;;;32.30;18.67;;;;;;;14.03;100.00;99758.73;4943370;57;1142977;-73
2023/10/24 15:39:17;;;;;;;31.23;19.25;;;;;;;13.98;100.00;99753.88;4789201;60;1143342;-72
2023/10/24 15:44:23;;;;;;;55.03;25.80;;;;;;;13.94;100.00;99754.34;4929502;57;1143105;-74
2023/10/24 15:49:29;;;;;;;33.70;19.00;;;;;;;13.88;100.00;99753.67;4914384;58;1142950;-71
2023/10/24 15:54:37;;;;;;;39.77;23.93;;;;;;;13.84;100.00;99753.15;4820275;58;1143173;-71
2023/10/24 15:59:41;;;;;;;23.70;13.63;;;;;;;13.83;100.00;99746.66;4841489;58;1143452;-73
2023/10/24 16:04:47;;;;;;;22.17;13.10;;;;;;;13.77;100.00;99736.16;4820470;59;1143135;-71
2023/10/24 16:09:52;;;;;;;27.23;15.93;;;;;;;13.70;100.00;99730.66;4818911;58;1142913;-72
2023/10/24 16:14:58;;;;;;;25.85;11.97;;;;;;;13.68;100.00;99740.61;4900735;57;1143524;-73
2023/10/24 16:20:05;;;;;;;20.27;10.50;;;;;;;13.64;100.00;99728.62;4783203;59;1142878;-74
2023/10/24 16:25:11;;;;;;;19.37;11.20;;;;;;;13.61;100.00;99732.91;4899872;57;1143140;-71
2023/10/24 16:30:17;;;;;;;19.60;11.47;;;;;;;13.59;100.00;99711.50;4917096;57;1143359;-74
2023/10/24 16:35:23;;;;;;;19.97;10.33;;;;;;;13.54;100.00;99693.38;4905918;57;1143057;-74
2023/10/24 16:40:30;;;;;;;22.00;11.10;;;;;;;13.43;100.00;99684.35;4792769;59;1142907;-71
2023/10/24 16:45:36;;;;;;;25.07;12.57;;;;;;;13.43;100.00;99684.35;4811292;58;1143737;-72
2023/10/24 16:50:42;;;;;;;25.70;14.37;;;;;;;13.41;100.00;99678.36;4718981;59;1143138;-71
2023/10/24 16:55:48;;;;;;;27.53;16.00;;;;;;;13.37;100.00;99683.64;4808890;58;1143007;-71
2023/10/24 17:00:55;;;;;;;30.30;17.98;;;;;;;13.33;100.00;99695.56;4916312;56;1143812;-74
2023/10/24 17:06:01;;;;;;;31.57;17.87;;;;;;;13.32;100.00;99700.03;4908382;57;1143015;-73
2023/10/24 17:11:07;;;;;;;35.90;16.60;;;;;;;13.31;100.00;99701.02;4884621;57;1143106;-74
2023/10/24 17:16:13;;;;;;;29.17;17.00;;;;;;;13.32;100.00;99695.22;4759043;60;1142969;-73
2023/10/24 17:21:19;;;;;;;30.23;17.90;;;;;;;13.34;100.00;99696.73;4743625;59;1142844;-74
2023/10/24 17:26:25;;;;;;;41.73;21.87;;;;;;;13.33;100.00;99684.94;4791456;59;1143359;-75
2023/10/24 17:31:30;;;;;;;30.60;17.83;;;;;;;13.28;100.00;99662.02;4797319;58;1143279;-73
2023/10/24 17:36:36;;;;;;;33.13;17.43;;;;;;;13.23;100.00;99659.83;4747926;58;1143198;-74
2023/10/24 17:41:41;;;;;;;32.47;17.23;;;;;;;13.19;100.00;99658.47;4784335;58;1143222;-75
2023/10/24 17:46:47;;;;;;;26.27;16.40;;;;;;;13.16;100.00;99645.50;4916967;58;1143128;-75
2023/10/24 17:51:55;;;;;;;29.07;16.10;;;;;;;13.10;100.00;99646.11;4833981;58;1142775;-77
2023/10/24 17:57:00;;;;;;;26.27;13.90;;;;;;;13.05;100.00;99640.43;4715018;60;1142770;-70
2023/10/24 18:02:06;;;;;;;35.10;17.40;;;;;;;13.02;100.00;99619.50;4735158;59;1143353;-70
2023/10/24 18:07:14;;;;;;;32.83;16.93;;;;;;;12.99;100.00;99614.50;4910179;58;1143156;-69
2023/10/24 18:12:20;;;;;;;42.13;17.00;;;;;;;12.96;100.00;99614.34;4746379;59;1143290;-67
2023/10/24 18:17:25;;;;;;;31.53;17.87;;;;;;;12.94;100.00;99610.17;4899255;58;1143201;-70
2023/10/24 18:22:32;;;;;;;32.07;18.30;;;;;;;12.94;100.00;99612.33;4806892;60;1142654;-71
2023/10/24 18:27:38;;;;;;;42.73;19.37;;;;;;;12.92;100.00;99609.48;4906910;57;1143163;-70
2023/10/24 18:32:44;;;;;;;32.00;17.70;;;;;;;12.88;100.00;99612.94;4751226;57;1143431;-71
2023/10/24 18:37:49;;;;;;;26.33;16.73;;;;;;;12.89;100.00;99600.51;4917560;57;1142846;-66
2023/10/24 18:42:55;;;;;;;34.50;18.37;;;;;;;12.87;100.00;99592.70;4763638;58;1143304;-70
2023/10/24 18:48:01;;;;;;;32.47;17.20;;;;;;;12.89;100.00;99595.20;4750399;59;1143057;-68
2023/10/24 18:53:07;;;;;;;32.17;18.00;;;;;;;12.85;100.00;99584.06;4898574;57;1142970;-71
2023/10/24 18:58:13;;;;;;;33.00;19.13;;;;;;;12.85;100.00;99584.55;4812162;59;1143081;-68
2023/10/24 19:03:18;;;;;;;31.70;17.10;;;;;;;12.82;100.00;99579.09;4791150;59;1143102;-69
2023/10/24 19:08:24;;;;;;;29.20;17.60;;;;;;;12.81;100.00;99573.44;4791364;60;1143169;-66
2023/10/24 19:13:34;;;;;;;31.63;18.03;;;;;;;12.79;100.00;99574.58;4805349;59;1143053;-74
2023/10/24 19:18:40;;;;;;;31.83;16.90;;;;;;;12.79;100.00;99574.58;4908406;57;1142848;-70
2023/10/24 19:23:46;;;;;;;28.23;15.73;;;;;;;12.78;100.00;99559.65;4912927;57;1143232;-72
2023/10/24 19:28:51;;;;;;;26.30;15.80;;;;;;;12.75;100.00;99548.84;4796967;60;1143497;-72
2023/10/24 19:33:57;;;;;;;24.60;15.70;;;;;;;12.75;100.00;99542.21;4778258;58;1143237;-73
2023/10/24 19:39:03;;;;;;;27.10;17.73;;;;;;;12.74;100.00;99534.41;4906691;57;1143033;-70
2023/10/24 19:44:11;;;;;;;28.98;16.95;;;;;;;12.72;100.00;99521.30;4767068;59;1143045;-71
2023/10/24 19:49:18;;;;;;;33.77;16.67;;;;;;;12.69;100.00;99521.11;4793605;59;1142925;-74
2023/10/24 19:54:23;;;;;;;25.40;16.93;;;;;;;12.66;100.00;99509.52;4911073;57;1143108;-69
2023/10/24 19:59:30;;;;;;;40.63;16.50;;;;;;;12.65;100.00;99497.23;4777845;60;1143102;-73
2023/10/24 20:04:39;;;;;;;30.40;17.23;;;;;;;12.61;100.00;99475.14;4850133;58;1142912;-72
2023/10/24 20:09:45;;;;;;;25.10;13.93;;;;;;;12.57;100.00;99471.97;4890548;57;1142722;-73
2023/10/24 20:14:51;;;;;;;30.68;16.45;;;;;;;12.57;100.00;99468.48;4904132;57;1142872;-73
2023/10/24 20:19:57;;;;;;;33.63;16.12;;;;;;;12.52;100.00;99454.88;4810328;60;1143295;-73
2023/10/24 20:25:03;;;;;;;35.65;15.48;;;;;;;12.51;100.00;99445.27;4902286;58;1156728;-71
2023/10/24 20:30:10;;;;;;;28.13;17.10;;;;;;;12.49;100.00;99436.63;4791450;59;1143093;-70
2023/10/24 20:35:16;;;;;;;25.83;16.23;;;;;;;12.46;100.00;99432.96;4925452;58;1142696;-72
2023/10/24 20:40:22;;;;;;;29.77;17.90;;;;;;;12.50;100.00;99435.64;4914092;57;1142977;-72
2023/10/24 20:45:27;;;;;;;27.43;15.20;;;;;;;12.52;100.00;99429.69;4749771;60;1143949;-71
2023/10/24 20:50:33;;;;;;;24.87;15.50;;;;;;;12.50;100.00;99421.05;4786214;58;1142813;-75
2023/10/24 20:55:39;;;;;;;33.73;18.03;;;;;;;12.50;100.00;99418.41;4913683;58;1143018;-74
2023/10/24 21:00:44;;;;;;;27.70;16.90;;;;;;;12.49;100.00;99418.06;4789759;59;1143236;-73
2023/10/24 21:05:50;;;;;;;29.27;16.60;;;;;;;12.44;100.00;99411.90;4949781;57;1152758;-71
2023/10/24 21:10:56;;;;;;;30.35;17.70;;;;;;;12.41;100.00;99410.05;4866762;59;1142938;-74
2023/10/24 21:16:02;;;;;;;35.80;17.55;;;;;;;12.38;100.00;99409.03;4797908;59;1143227;-72
2023/10/24 21:21:08;;;;;;;34.20;18.43;;;;;;;12.35;100.00;99404.07;4792488;58;1142978;-75
2023/10/24 21:26:14;;;;;;;32.83;19.77;;;;;;;12.32;100.00;99401.23;4809273;59;1142830;-74
2023/10/24 21:31:20;;;;;;;42.53;17.90;;;;;;;12.28;100.00;99394.58;4927993;57;1143070;-75
2023/10/24 21:36:26;;;;;;;31.00;18.63;;;;;;;12.25;100.00;99387.77;4756094;59;1143277;-73
2023/10/24 21:41:32;;;;;;;31.97;17.67;;;;;;;12.24;100.00;99379.96;4751914;60;1143021;-71
2023/10/24 21:46:37;;;;;;;33.87;19.77;;;;;;;12.22;100.00;99369.52;4734808;60;1143105;-70
2023/10/24 21:51:43;;;;;;;29.00;16.77;;;;;;;12.19;100.00;99355.77;4731266;60;1143059;-72
2023/10/24 21:56:51;;;;;;;31.47;19.70;;;;;;;12.16;100.00;99354.75;4836872;58;1258974;-74
2023/10/24 22:01:56;;;;;;;30.43;19.70;;;;;;;12.11;100.00;99348.59;4834679;57;1142888;-74
2023/10/24 22:07:02;;;;;;;30.88;19.77;;;;;;;12.08;100.00;99346.73;4787571;60;1143568;-71
2023/10/24 22:12:08;;;;;;;31.05;19.30;;;;;;;12.08;100.00;99348.89;4907915;57;1143197;-74
2023/10/24 22:17:13;;;;;;;31.73;21.17;;;;;;;12.06;100.00;99344.77;4809654;59;1143387;-72
2023/10/24 22:22:19;;;;;;;31.07;20.37;;;;;;;12.07;100.00;99347.75;4791547;59;1142945;-74
2023/10/24 22:27:25;;;;;;;31.37;21.33;;;;;;;12.08;100.00;99344.09;4790526;59;1143051;-72
2023/10/24 22:32:30;;;;;;;32.47;20.40;;;;;;;12.04;100.00;99330.84;4929455;57;1142854;-72
2023/10/24 22:37:36;;;;;;;35.20;22.93;;;;;;;12.02;100.00;99334.97;4827689;59;1143314;-75